Time;durP1;ratioP1;P1;durP2;ratioP2;P2;SDS_P1;SDS_P2;PMS_P1;PMS_P2;Temp;Humidity;BMP_temperature;BMP_pressure;BME280_temperature;BME280_humidity;BME280_pressure;Samples;Min_cycle;Max_cycle;Signal;HPM_P1;HPM_P2
2023/04/11 00:01:29;;;;;;;4.28;2.00;;;13.80;64.00;;;;;;5015614;28;20105;-47
2023/04/11 00:03:58;;;;;;;5.22;2.22;;;13.80;63.80;;;;;;5019339;28;20048;-45
2023/04/11 00:06:25;;;;;;;3.72;1.90;;;13.80;63.70;;;;;;5012817;28;20076;-48
2023/04/11 00:08:52;;;;;;;6.00;1.40;;;13.80;63.60;;;;;;5019014;28;20528;-49
2023/04/11 00:11:21;;;;;;;6.32;2.50;;;13.80;63.60;;;;;;5017642;28;20041;-48
2023/04/11 00:13:50;;;;;;;7.05;1.58;;;13.80;63.60;;;;;;5019563;28;20053;-47
2023/04/11 00:16:18;;;;;;;4.80;2.05;;;13.80;63.40;;;;;;5011277;28;20042;-48
2023/04/11 00:18:45;;;;;;;5.25;1.80;;;13.80;63.30;;;;;;5011018;28;20049;-47
2023/04/11 00:21:11;;;;;;;6.50;2.30;;;13.80;63.30;;;;;;5026037;28;20046;-47
2023/04/11 00:23:38;;;;;;;7.53;2.70;;;13.80;63.20;;;;;;5018841;28;20053;-47
2023/04/11 00:26:05;;;;;;;4.28;1.67;;;13.80;63.20;;;;;;5011208;28;20069;-48
2023/04/11 00:28:31;;;;;;;6.80;2.05;;;13.80;63.20;;;;;;5016974;28;20045;-46
2023/04/11 00:30:58;;;;;;;5.70;2.10;;;13.80;63.20;;;;;;4998471;28;20061;-49
2023/04/11 00:33:25;;;;;;;9.40;1.90;;;13.80;63.00;;;;;;5021406;28;20041;-46
2023/04/11 00:35:54;;;;;;;6.80;2.13;;;13.80;62.90;;;;;;5001682;28;20045;-47
2023/04/11 00:38:21;;;;;;;5.82;1.80;;;13.80;63.00;;;;;;5000523;28;20041;-46
2023/04/11 00:40:48;;;;;;;7.65;2.42;;;13.80;62.90;;;;;;5010588;28;20057;-47
2023/04/11 00:43:14;;;;;;;7.32;2.20;;;13.80;62.80;;;;;;5018675;28;20042;-50
2023/04/11 00:45:41;;;;;;;4.25;2.00;;;13.80;62.70;;;;;;5023230;28;20081;-51
2023/04/11 00:48:10;;;;;;;7.45;2.40;;;13.80;62.60;;;;;;5018745;28;20828;-47
2023/04/11 00:50:41;;;;;;;8.02;2.97;;;13.80;62.60;;;;;;4992996;28;20053;-47
2023/04/11 00:53:11;;;;;;;14.70;2.43;;;13.80;62.70;;;;;;5002882;28;20053;-47
2023/04/11 00:55:39;;;;;;;7.35;2.28;;;13.70;62.70;;;;;;5007974;28;20310;-46
2023/04/11 00:58:07;;;;;;;8.35;2.70;;;13.70;62.60;;;;;;5009742;28;20049;-45
2023/04/11 01:00:37;;;;;;;8.77;2.78;;;13.80;62.60;;;;;;5028323;28;20056;-45
2023/04/11 01:03:04;;;;;;;9.52;2.42;;;13.70;62.50;;;;;;5021204;28;20049;-51
2023/04/11 01:05:32;;;;;;;7.10;2.58;;;13.70;62.30;;;;;;5018174;28;20037;-47
2023/04/11 01:08:00;;;;;;;9.95;3.35;;;13.70;62.30;;;;;;5010185;28;20041;-45
2023/04/11 01:10:29;;;;;;;7.80;2.42;;;13.70;62.20;;;;;;5009924;28;20042;-44
2023/04/11 01:13:00;;;;;;;10.77;3.50;;;13.70;62.10;;;;;;5012527;28;20042;-46
2023/04/11 01:15:27;;;;;;;11.75;3.00;;;13.60;62.10;;;;;;5026417;28;20033;-48
2023/04/11 01:17:54;;;;;;;14.13;3.38;;;13.60;62.10;;;;;;5028345;28;20128;-47
2023/04/11 01:20:21;;;;;;;13.27;3.10;;;13.60;62.10;;;;;;5000384;28;20051;-47
2023/04/11 01:22:49;;;;;;;13.55;2.72;;;13.60;62.10;;;;;;5011042;28;20754;-47
2023/04/11 01:25:21;;;;;;;6.47;2.75;;;13.50;62.00;;;;;;5000361;28;20042;-46
2023/04/11 01:27:47;;;;;;;10.10;3.05;;;13.50;62.20;;;;;;5020100;28;20045;-48
2023/04/11 01:30:18;;;;;;;8.35;2.47;;;13.50;62.00;;;;;;5002976;28;20041;-47
2023/04/11 01:32:46;;;;;;;19.15;3.22;;;13.40;61.90;;;;;;5015407;28;20601;-46
2023/04/11 01:35:16;;;;;;;14.27;2.58;;;13.40;61.90;;;;;;4999961;28;20068;-45
2023/04/11 01:37:44;;;;;;;9.05;2.88;;;13.40;61.90;;;;;;5028087;28;20050;-47
2023/04/11 01:40:16;;;;;;;10.50;2.97;;;13.40;61.90;;;;;;4984644;28;20053;-47
2023/04/11 01:42:46;;;;;;;13.52;2.90;;;13.30;61.80;;;;;;5009695;28;20480;-48
2023/04/11 01:45:13;;;;;;;8.10;2.20;;;13.30;61.90;;;;;;5022291;28;20041;-47
2023/04/11 01:47:40;;;;;;;11.73;2.55;;;13.30;61.90;;;;;;5011201;28;20785;-47
2023/04/11 01:50:07;;;;;;;12.52;3.08;;;13.20;62.10;;;;;;5010289;28;20124;-47
2023/04/11 01:52:34;;;;;;;13.88;3.33;;;13.20;62.20;;;;;;5013025;28;20132;-46
2023/04/11 01:55:04;;;;;;;7.18;3.10;;;13.30;62.40;;;;;;5022823;28;20494;-45
2023/04/11 01:57:31;;;;;;;12.93;3.65;;;13.20;62.20;;;;;;5017331;28;20042;-48
2023/04/11 02:00:00;;;;;;;11.68;3.90;;;13.20;62.10;;;;;;4991503;28;20041;-48
2023/04/11 02:02:29;;;;;;;11.55;3.53;;;13.20;62.20;;;;;;5022101;28;20042;-45
2023/04/11 02:04:56;;;;;;;13.95;3.50;;;13.20;62.20;;;;;;5004996;28;20095;-46
2023/04/11 02:07:23;;;;;;;7.22;3.03;;;13.20;62.20;;;;;;5009077;28;20042;-48
2023/04/11 02:09:49;;;;;;;10.77;3.65;;;13.20;62.20;;;;;;4991235;28;20060;-46
2023/04/11 02:12:16;;;;;;;12.50;3.50;;;13.20;62.20;;;;;;4989942;28;20141;-49
2023/04/11 02:14:45;;;;;;;13.40;3.65;;;13.20;62.20;;;;;;5025706;28;20037;-49
2023/04/11 02:17:17;;;;;;;16.08;3.78;;;13.20;62.20;;;;;;5007830;28;20049;-45
2023/04/11 02:19:46;;;;;;;11.70;3.03;;;13.20;62.20;;;;;;5009072;28;20065;-47
2023/04/11 02:22:14;;;;;;;8.18;3.72;;;13.20;62.20;;;;;;5020959;28;20120;-47
2023/04/11 02:24:41;;;;;;;12.60;3.55;;;13.20;62.10;;;;;;5023398;28;20072;-47
2023/04/11 02:27:09;;;;;;;10.10;3.50;;;13.20;62.10;;;;;;4992644;28;20054;-47
2023/04/11 02:29:36;;;;;;;13.25;3.80;;;13.20;62.10;;;;;;5010694;28;20053;-46
2023/04/11 02:32:02;;;;;;;11.60;3.20;;;13.20;62.10;;;;;;4999969;28;20049;-48
2023/04/11 02:34:31;;;;;;;11.48;2.95;;;13.20;62.20;;;;;;5000612;28;20046;-46
2023/04/11 02:36:58;;;;;;;14.65;3.30;;;13.20;62.20;;;;;;5020325;28;20343;-46
2023/04/11 02:39:28;;;;;;;15.00;3.65;;;13.20;62.20;;;;;;4995292;28;20045;-46
2023/04/11 02:41:56;;;;;;;9.43;3.15;;;13.20;62.00;;;;;;5016582;28;20069;-45
2023/04/11 02:44:22;;;;;;;10.90;3.58;;;13.20;62.00;;;;;;5022428;28;20049;-48
2023/04/11 02:46:49;;;;;;;10.77;3.38;;;13.20;62.00;;;;;;5005800;28;20539;-45
2023/04/11 02:49:16;;;;;;;11.35;3.70;;;13.10;61.90;;;;;;4991332;28;20071;-47
2023/04/11 02:51:46;;;;;;;15.75;4.30;;;13.20;62.10;;;;;;4990950;28;20680;-46
2023/04/11 02:54:13;;;;;;;10.68;3.28;;;13.10;62.00;;;;;;5015968;28;20045;-45
2023/04/11 02:56:42;;;;;;;14.00;3.58;;;13.10;61.90;;;;;;4992174;28;20073;-45
2023/04/11 02:59:09;;;;;;;12.80;4.07;;;13.10;61.90;;;;;;4990596;28;20052;-49
2023/04/11 03:01:36;;;;;;;13.23;3.78;;;13.10;61.70;;;;;;5000015;28;20065;-46
2023/04/11 03:04:07;;;;;;;13.05;3.40;;;13.10;61.80;;;;;;5021903;28;20465;-48
2023/04/11 03:06:43;;;;;;;10.25;3.10;;;13.00;61.80;;;;;;4993941;28;20136;-48
2023/04/11 03:09:10;;;;;;;14.20;3.72;;;13.00;61.90;;;;;;4990732;28;20061;-46
2023/04/11 03:11:37;;;;;;;13.00;4.05;;;13.00;61.90;;;;;;5018277;28;20045;-47
2023/04/11 03:14:04;;;;;;;12.20;3.20;;;13.00;62.00;;;;;;4998876;28;20048;-44
2023/04/11 03:16:31;;;;;;;13.93;3.60;;;13.00;62.10;;;;;;5027039;28;20062;-45
2023/04/11 03:18:58;;;;;;;11.02;3.95;;;13.00;62.10;;;;;;5016302;28;20102;-48
2023/04/11 03:21:26;;;;;;;13.75;3.58;;;13.00;62.10;;;;;;5016820;28;20045;-46
2023/04/11 03:23:53;;;;;;;15.70;3.38;;;13.00;62.00;;;;;;4998865;28;20145;-47
2023/04/11 03:26:20;;;;;;;11.90;4.10;;;13.00;61.90;;;;;;4993605;28;20053;-46
2023/04/11 03:28:49;;;;;;;12.18;3.35;;;13.00;61.90;;;;;;5007984;28;20050;-47
2023/04/11 03:31:18;;;;;;;10.57;3.15;;;13.00;61.80;;;;;;5009219;28;20140;-45
2023/04/11 03:33:48;;;;;;;11.38;3.25;;;13.00;61.90;;;;;;5001093;28;20049;-47
2023/04/11 03:36:15;;;;;;;16.58;3.30;;;13.00;61.90;;;;;;5004875;28;20056;-45
2023/04/11 03:38:42;;;;;;;11.88;3.28;;;13.00;61.90;;;;;;5025286;28;20045;-45
2023/04/11 03:41:09;;;;;;;16.58;4.38;;;13.00;61.70;;;;;;5004154;28;20056;-49
2023/04/11 03:43:35;;;;;;;12.93;4.50;;;13.00;61.60;;;;;;5030401;28;20041;-46
2023/04/11 03:46:08;;;;;;;14.18;3.30;;;13.00;61.60;;;;;;5005683;28;20668;-48
2023/04/11 03:48:39;;;;;;;7.97;3.35;;;13.00;61.50;;;;;;4998558;28;20501;-46
2023/04/11 03:51:08;;;;;;;10.07;3.38;;;13.00;61.40;;;;;;4994001;28;20056;-45
2023/04/11 03:53:51;;;;;;;15.60;3.63;;;12.90;61.30;;;;;;4996360;28;20046;-47
2023/04/11 03:56:31;;;;;;;12.05;3.13;;;12.90;61.20;;;;;;5009018;28;20462;-46
2023/04/11 03:59:06;;;;;;;12.88;3.35;;;12.90;61.20;;;;;;5016690;28;20045;-45
2023/04/11 04:01:46;;;;;;;13.00;3.60;;;12.90;61.40;;;;;;5010955;28;20356;-47
2023/04/11 04:04:13;;;;;;;13.60;3.80;;;12.90;60.90;;;;;;4996243;28;20040;-46
2023/04/11 04:06:44;;;;;;;8.85;3.30;;;12.80;60.90;;;;;;5016457;28;20087;-46
2023/04/11 04:09:14;;;;;;;9.88;2.97;;;12.80;60.90;;;;;;5015660;28;20123;-48
2023/04/11 04:11:50;;;;;;;15.60;3.40;;;12.80;60.90;;;;;;5022359;28;20540;-47
2023/04/11 04:14:22;;;;;;;12.90;3.22;;;12.80;61.00;;;;;;5016137;28;20049;-49
2023/04/11 04:16:50;;;;;;;8.63;3.72;;;12.80;61.00;;;;;;5018475;28;20030;-47
2023/04/11 04:19:20;;;;;;;12.18;4.55;;;12.80;60.80;;;;;;5015319;28;20046;-45
2023/04/11 04:21:48;;;;;;;10.35;2.88;;;12.80;60.90;;;;;;5007360;28;20039;-47
2023/04/11 04:24:16;;;;;;;12.85;3.45;;;12.80;61.00;;;;;;5020441;28;20044;-47
2023/04/11 04:26:59;;;;;;;12.55;3.95;;;12.80;60.90;;;;;;5021815;28;20048;-46
2023/04/11 04:29:46;;;;;;;11.02;4.72;;;12.80;61.10;;;;;;5021526;28;20053;-46
2023/04/11 04:32:23;;;;;;;11.98;3.20;;;12.80;61.00;;;;;;5018963;28;20057;-48
2023/04/11 04:34:57;;;;;;;9.05;3.47;;;12.80;61.00;;;;;;5017781;28;20696;-46
2023/04/11 04:37:27;;;;;;;16.60;3.83;;;12.70;61.20;;;;;;5019102;28;20042;-46
2023/04/11 04:40:12;;;;;;;10.80;3.35;;;12.70;61.20;;;;;;5024501;28;20033;-47
2023/04/11 04:42:57;;;;;;;13.25;3.65;;;12.70;61.10;;;;;;5005474;28;20046;-49
2023/04/11 04:45:34;;;;;;;13.48;3.55;;;12.70;61.20;;;;;;5022792;28;20049;-46
2023/04/11 04:48:01;;;;;;;11.15;3.88;;;12.70;61.10;;;;;;5023328;28;20049;-46
2023/04/11 04:50:28;;;;;;;13.18;3.60;;;12.70;61.20;;;;;;5030427;28;20120;-47
2023/04/11 04:52:54;;;;;;;10.50;3.15;;;12.70;61.10;;;;;;5030441;28;20486;-46
2023/04/11 04:55:21;;;;;;;12.13;3.30;;;12.70;61.20;;;;;;5028885;28;20049;-47
2023/04/11 04:57:51;;;;;;;13.75;4.00;;;12.70;61.30;;;;;;5015892;28;20042;-49
2023/04/11 05:00:20;;;;;;;15.10;3.10;;;12.70;61.40;;;;;;5019609;28;20133;-48
2023/04/11 05:02:53;;;;;;;8.60;2.92;;;12.60;61.30;;;;;;5008495;28;20037;-49
2023/04/11 05:05:24;;;;;;;16.65;4.53;;;12.60;62.00;;;;;;5002369;28;20457;-49
2023/04/11 05:07:53;;;;;;;14.23;4.65;;;12.60;61.30;;;;;;5031336;23;20657;-50
2023/04/11 05:10:19;;;;;;;11.10;3.85;;;12.60;61.40;;;;;;5030965;28;20112;-48
2023/04/11 05:12:47;;;;;;;10.98;3.50;;;12.60;61.30;;;;;;5043890;28;20498;-49
2023/04/11 05:15:14;;;;;;;9.07;3.33;;;12.60;62.00;;;;;;5044893;28;20073;-51
2023/04/11 05:17:43;;;;;;;11.40;2.97;;;12.60;61.40;;;;;;5022959;28;20045;-51
2023/04/11 05:20:12;;;;;;;12.82;4.85;;;12.60;61.40;;;;;;5012748;28;20460;-48
2023/04/11 05:22:41;;;;;;;11.40;4.45;;;12.60;61.20;;;;;;5025478;28;20053;-48
2023/04/11 05:25:12;;;;;;;9.82;3.72;;;12.50;61.10;;;;;;5026001;28;20140;-48
2023/04/11 05:27:43;;;;;;;9.32;4.40;;;12.50;61.20;;;;;;5015509;28;20049;-46
2023/04/11 05:30:12;;;;;;;10.20;4.63;;;12.50;61.20;;;;;;5042589;28;20501;-47
2023/04/11 05:32:41;;;;;;;12.80;4.63;;;12.50;61.10;;;;;;5019901;28;20056;-52
2023/04/11 05:35:09;;;;;;;10.52;4.32;;;12.50;61.00;;;;;;5022365;28;20050;-52
2023/04/11 05:37:46;;;;;;;9.07;3.65;;;12.50;61.00;;;;;;5023019;28;20050;-48
2023/04/11 05:40:13;;;;;;;12.77;4.22;;;12.40;61.10;;;;;;5027389;28;20041;-48
2023/04/11 05:42:40;;;;;;;7.47;3.53;;;12.40;61.10;;;;;;5026818;28;20410;-48
2023/04/11 05:45:08;;;;;;;9.63;3.35;;;12.50;61.10;;;;;;5026359;28;20049;-48
2023/04/11 05:47:36;;;;;;;10.80;4.38;;;12.40;61.10;;;;;;5028442;28;20136;-48
2023/04/11 05:50:04;;;;;;;10.43;3.95;;;12.50;61.20;;;;;;5030237;28;20073;-52
2023/04/11 05:52:30;;;;;;;11.60;4.28;;;12.50;61.20;;;;;;5028470;28;20541;-48
2023/04/11 05:54:57;;;;;;;11.93;4.35;;;12.40;61.00;;;;;;5028069;28;20079;-49
2023/04/11 05:57:24;;;;;;;8.10;3.70;;;12.40;61.10;;;;;;5026514;28;20561;-47
2023/04/11 05:59:51;;;;;;;7.65;3.53;;;12.40;61.20;;;;;;5023524;28;20057;-47
2023/04/11 06:02:18;;;;;;;11.95;4.43;;;12.40;61.20;;;;;;5026368;28;20054;-47
2023/04/11 06:04:45;;;;;;;15.30;4.30;;;12.50;61.30;;;;;;5026002;28;20046;-52
2023/04/11 06:07:12;;;;;;;17.17;4.00;;;12.50;61.40;;;;;;5027807;28;20129;-50
2023/04/11 06:09:41;;;;;;;12.93;3.90;;;12.50;61.30;;;;;;5027219;28;20049;-50
2023/04/11 06:12:08;;;;;;;10.70;3.50;;;12.50;61.20;;;;;;5028042;28;20528;-49
2023/04/11 06:14:37;;;;;;;10.23;3.50;;;12.50;61.20;;;;;;5028677;28;20041;-50
2023/04/11 06:17:06;;;;;;;11.37;3.30;;;12.50;61.00;;;;;;5028109;28;20073;-52
2023/04/11 06:19:34;;;;;;;10.35;3.38;;;12.50;60.80;;;;;;5028135;28;20042;-50
2023/04/11 06:22:00;;;;;;;4.93;2.72;;;12.50;60.90;;;;;;5029616;28;20052;-48
2023/04/11 06:24:38;;;;;;;10.65;2.80;;;12.50;61.10;;;;;;5029055;28;20065;-51
2023/04/11 06:27:08;;;;;;;12.45;3.22;;;12.50;61.30;;;;;;5027578;28;20056;-48
2023/04/11 06:29:36;;;;;;;9.52;3.30;;;12.50;61.10;;;;;;5028544;28;20048;-47
2023/04/11 06:32:03;;;;;;;7.95;3.38;;;12.50;61.00;;;;;;5029426;28;20666;-49
2023/04/11 06:34:34;;;;;;;10.20;3.55;;;12.50;61.10;;;;;;5027532;28;20049;-51
2023/04/11 06:37:01;;;;;;;9.07;3.00;;;12.50;61.30;;;;;;5027400;28;20045;-48
2023/04/11 06:39:29;;;;;;;7.40;3.22;;;12.50;61.20;;;;;;5025976;28;20037;-47
2023/04/11 06:41:56;;;;;;;10.18;3.20;;;12.50;61.10;;;;;;5028981;28;20048;-49
2023/04/11 06:44:24;;;;;;;8.20;2.13;;;12.50;61.10;;;;;;5026643;28;20532;-49
2023/04/11 06:46:51;;;;;;;20.60;4.57;;;12.60;61.30;;;;;;5029677;28;20041;-48
2023/04/11 06:49:18;;;;;;;8.98;2.85;;;12.60;61.30;;;;;;5028042;28;20553;-50
2023/04/11 06:51:47;;;;;;;11.48;3.80;;;12.60;61.20;;;;;;5030207;28;20050;-53
2023/04/11 06:54:15;;;;;;;9.63;2.88;;;12.60;60.90;;;;;;5028761;28;20040;-51
2023/04/11 06:56:42;;;;;;;7.78;2.58;;;12.70;60.80;;;;;;5028741;28;20049;-48
2023/04/11 06:59:11;;;;;;;11.73;2.60;;;12.70;61.00;;;;;;5028753;28;20500;-49
2023/04/11 07:01:38;;;;;;;8.07;2.88;;;12.70;60.70;;;;;;5029506;28;20044;-48
2023/04/11 07:04:05;;;;;;;8.10;3.33;;;12.70;60.50;;;;;;5028103;28;20502;-47
2023/04/11 07:06:36;;;;;;;7.18;2.75;;;12.70;60.30;;;;;;5029566;28;20037;-52
2023/04/11 07:09:03;;;;;;;8.90;2.50;;;12.70;60.60;;;;;;5028815;28;20049;-49
2023/04/11 07:11:31;;;;;;;10.13;2.53;;;12.70;60.50;;;;;;5031395;28;20041;-48
2023/04/11 07:14:01;;;;;;;9.45;2.15;;;12.80;60.40;;;;;;5029657;28;20045;-49
2023/04/11 07:16:31;;;;;;;9.93;2.60;;;12.80;60.30;;;;;;5026074;28;20120;-48
2023/04/11 07:18:58;;;;;;;14.35;3.22;;;12.70;60.00;;;;;;5032796;28;20042;-49
2023/04/11 07:21:29;;;;;;;8.40;3.08;;;12.80;60.20;;;;;;5033142;28;20397;-50
2023/04/11 07:23:55;;;;;;;8.90;3.20;;;12.80;60.20;;;;;;5030597;28;20030;-53
2023/04/11 07:26:30;;;;;;;5.20;2.33;;;12.80;60.00;;;;;;5032528;28;20057;-49
2023/04/11 07:28:58;;;;;;;10.18;2.30;;;12.80;60.30;;;;;;5032087;28;20045;-50
2023/04/11 07:31:25;;;;;;;9.15;2.92;;;12.80;60.00;;;;;;5033357;28;20121;-52
2023/04/11 07:33:52;;;;;;;11.10;2.58;;;12.80;60.00;;;;;;5032201;28;20533;-49
2023/04/11 07:36:19;;;;;;;11.38;2.78;;;12.90;60.00;;;;;;5024878;28;20120;-49
2023/04/11 07:38:46;;;;;;;6.97;2.00;;;12.90;60.10;;;;;;5032216;28;20072;-53
2023/04/11 07:41:12;;;;;;;8.38;3.00;;;12.90;60.10;;;;;;5030733;28;20414;-50
2023/04/11 07:43:41;;;;;;;4.72;2.03;;;13.00;60.20;;;;;;5032091;28;20075;-47
2023/04/11 07:46:08;;;;;;;10.15;1.90;;;13.10;59.60;;;;;;5033186;28;20763;-49
2023/04/11 07:48:34;;;;;;;8.10;2.25;;;13.10;59.50;;;;;;5031533;28;20425;-53
2023/04/11 07:51:01;;;;;;;7.43;2.65;;;13.20;59.50;;;;;;5033522;28;20064;-48
2023/04/11 07:53:29;;;;;;;6.03;2.17;;;13.20;59.10;;;;;;5025866;28;20163;-50
2023/04/11 07:56:00;;;;;;;7.45;2.22;;;13.30;58.50;;;;;;5033229;28;20115;-52
2023/04/11 07:58:30;;;;;;;9.55;2.60;;;13.40;59.00;;;;;;5031186;28;20045;-48
2023/04/11 08:00:57;;;;;;;7.18;2.50;;;13.50;58.90;;;;;;5032798;28;20071;-51
2023/04/11 08:03:27;;;;;;;7.85;2.22;;;13.50;59.20;;;;;;5030128;28;20112;-48
2023/04/11 08:05:54;;;;;;;7.30;1.85;;;13.60;59.10;;;;;;5028422;28;20043;-53
2023/04/11 08:08:20;;;;;;;6.63;2.33;;;13.70;58.80;;;;;;5026526;28;20099;-48
2023/04/11 08:10:47;;;;;;;7.72;2.10;;;13.80;57.80;;;;;;5029281;28;20124;-49
2023/04/11 08:13:17;;;;;;;10.02;2.50;;;13.90;57.30;;;;;;5030030;28;20091;-50
2023/04/11 08:15:46;;;;;;;6.35;2.47;;;13.90;56.70;;;;;;5029233;28;20037;-52
2023/04/11 08:18:15;;;;;;;4.13;1.75;;;13.90;56.20;;;;;;5027452;28;20050;-48
2023/04/11 08:20:41;;;;;;;6.35;1.67;;;13.90;56.50;;;;;;5029163;28;20041;-49
2023/04/11 08:23:10;;;;;;;5.70;2.00;;;13.90;56.20;;;;;;5029970;28;20076;-49
2023/04/11 08:25:39;;;;;;;9.45;2.63;;;13.90;56.40;;;;;;5026238;28;20053;-48
2023/04/11 08:28:14;;;;;;;6.32;2.13;;;13.90;56.40;;;;;;5031279;28;20045;-52
2023/04/11 08:30:40;;;;;;;5.80;2.22;;;14.00;56.00;;;;;;5031858;28;20057;-49
2023/04/11 08:33:08;;;;;;;7.88;2.28;;;14.00;55.90;;;;;;5027219;28;20118;-47
2023/04/11 08:35:36;;;;;;;5.05;1.75;;;14.00;55.70;;;;;;5026163;28;20806;-51
2023/04/11 08:38:09;;;;;;;4.88;1.80;;;14.10;55.60;;;;;;5030053;28;20042;-48
2023/04/11 08:40:36;;;;;;;6.38;1.45;;;14.10;55.60;;;;;;5026822;28;20046;-49
2023/04/11 08:43:08;;;;;;;6.55;1.60;;;14.10;55.80;;;;;;5031950;28;20485;-48
2023/04/11 08:45:35;;;;;;;6.35;1.63;;;14.20;55.10;;;;;;5031672;28;20044;-53
2023/04/11 08:48:02;;;;;;;4.93;1.52;;;14.20;54.80;;;;;;5028622;28;20120;-49
2023/04/11 08:50:28;;;;;;;5.95;1.70;;;14.30;54.80;;;;;;5031008;28;20557;-50
2023/04/11 08:52:57;;;;;;;12.75;2.63;;;14.30;55.10;;;;;;5029266;28;20057;-49
2023/04/11 08:55:24;;;;;;;5.70;1.60;;;14.30;54.70;;;;;;5030186;28;20049;-52
2023/04/11 08:57:55;;;;;;;8.90;1.77;;;14.30;54.60;;;;;;5024253;28;20065;-49
2023/04/11 09:00:24;;;;;;;6.28;1.80;;;14.40;54.20;;;;;;5025445;28;21146;-53
2023/04/11 09:02:54;;;;;;;5.68;2.20;;;14.30;54.10;;;;;;5025819;28;20156;-51
2023/04/11 09:05:25;;;;;;;5.55;1.80;;;14.30;53.80;;;;;;5030543;28;20037;-49
2023/04/11 09:07:52;;;;;;;5.25;2.00;;;14.30;53.90;;;;;;5029808;28;20075;-47
2023/04/11 09:10:22;;;;;;;5.80;2.00;;;14.40;54.70;;;;;;5030235;28;20050;-52
2023/04/11 09:12:49;;;;;;;5.28;1.92;;;14.40;54.90;;;;;;5029757;28;20048;-49
2023/04/11 09:15:28;;;;;;;5.60;1.83;;;14.40;54.90;;;;;;5031341;28;20060;-48
2023/04/11 09:17:56;;;;;;;6.45;2.30;;;14.50;54.10;;;;;;5030160;28;20037;-47
2023/04/11 09:20:29;;;;;;;4.95;1.80;;;14.50;53.50;;;;;;5031629;28;20041;-48
2023/04/11 09:22:58;;;;;;;5.72;2.00;;;14.50;53.00;;;;;;5030993;28;20042;-48
2023/04/11 09:25:26;;;;;;;4.90;2.22;;;14.60;53.10;;;;;;5024028;28;20473;-52
2023/04/11 09:28:09;;;;;;;4.82;1.85;;;14.50;52.90;;;;;;5027049;28;20052;-48
2023/04/11 09:30:49;;;;;;;4.88;1.75;;;14.60;52.00;;;;;;5030913;28;20049;-52
2023/04/11 09:33:27;;;;;;;5.70;1.83;;;14.60;51.50;;;;;;5028952;28;20042;-48
2023/04/11 09:35:57;;;;;;;8.10;2.13;;;14.60;51.30;;;;;;5030514;28;20547;-49
2023/04/11 09:38:31;;;;;;;4.53;1.92;;;14.60;51.50;;;;;;5030919;28;20045;-52
2023/04/11 09:41:03;;;;;;;5.20;2.22;;;14.60;50.50;;;;;;5031954;28;20049;-52
2023/04/11 09:43:53;;;;;;;5.70;2.15;;;14.60;51.00;;;;;;5030367;28;20041;-51
2023/04/11 09:46:21;;;;;;;3.70;2.08;;;14.60;50.10;;;;;;5030457;28;20107;-51
2023/04/11 09:48:48;;;;;;;6.18;2.25;;;14.70;50.50;;;;;;5030075;28;20045;-49
2023/04/11 09:51:17;;;;;;;3.83;2.47;;;14.70;49.80;;;;;;5031537;28;20494;-48
2023/04/11 09:54:02;;;;;;;4.22;2.38;;;14.70;49.60;;;;;;5029761;28;20050;-51
2023/04/11 09:56:30;;;;;;;5.43;2.22;;;14.70;49.80;;;;;;5025295;28;20129;-52
2023/04/11 09:58:59;;;;;;;5.68;2.22;;;14.70;50.10;;;;;;5029910;28;20045;-50
2023/04/11 10:01:30;;;;;;;5.93;2.40;;;14.70;49.80;;;;;;5030760;28;20034;-52
2023/04/11 10:03:57;;;;;;;6.82;2.08;;;14.70;50.20;;;;;;5028223;28;20037;-48
2023/04/11 10:06:33;;;;;;;2.92;1.63;;;14.80;50.50;;;;;;5025624;28;20033;-50
2023/04/11 10:09:11;;;;;;;5.95;2.40;;;14.80;49.80;;;;;;5029574;28;20045;-52
2023/04/11 10:11:41;;;;;;;6.43;2.38;;;14.90;49.80;;;;;;5024051;28;20401;-49
2023/04/11 10:14:28;;;;;;;4.38;2.30;;;15.00;49.80;;;;;;5029432;28;20468;-50
2023/04/11 10:17:17;;;;;;;5.20;1.70;;;15.00;49.70;;;;;;5029359;28;20045;-48
2023/04/11 10:19:55;;;;;;;;;;;15.00;48.90;;;;;;5025263;28;20609;-47
2023/04/11 10:22:49;;;;;;;3.60;2.22;;;15.10;49.80;;;;;;5030621;28;19921;-51
2023/04/11 10:25:22;;;;;;;4.90;2.10;;;15.10;49.00;;;;;;5029776;28;20501;-48
2023/04/11 10:27:59;;;;;;;3.85;2.30;;;15.00;48.90;;;;;;5028649;28;20092;-52
2023/04/11 10:31:01;;;;;;;2.38;1.83;;;15.10;48.80;;;;;;5029308;28;20076;-48
2023/04/11 10:33:31;;;;;;;3.58;2.13;;;15.10;48.40;;;;;;5020981;28;20117;-45
2023/04/11 10:36:09;;;;;;;3.17;1.83;;;15.10;48.60;;;;;;5028598;28;20033;-49
2023/04/11 10:38:47;;;;;;;2.97;1.60;;;15.20;48.40;;;;;;5022228;28;20091;-49
2023/04/11 10:41:32;;;;;;;5.55;1.77;;;15.20;48.50;;;;;;5030785;28;20505;-52
2023/04/11 10:44:13;;;;;;;8.27;2.85;;;15.20;48.30;;;;;;5030217;28;20111;-51
2023/04/11 10:46:48;;;;;;;3.13;2.00;;;15.20;48.40;;;;;;5029366;28;20038;-48
2023/04/11 10:49:40;;;;;;;4.68;2.10;;;15.30;47.80;;;;;;5029702;28;20042;-51
2023/04/11 10:52:22;;;;;;;4.10;2.00;;;15.40;48.00;;;;;;5029267;28;20041;-52
2023/04/11 10:54:50;;;;;;;5.22;2.53;;;15.40;47.80;;;;;;5029897;28;20046;-52
2023/04/11 10:57:19;;;;;;;10.95;2.47;;;15.50;47.80;;;;;;5028991;28;20049;-48
2023/04/11 10:59:49;;;;;;;3.72;1.90;;;15.60;48.10;;;;;;5029306;28;20056;-51
2023/04/11 11:02:18;;;;;;;3.78;2.67;;;15.70;47.50;;;;;;5030098;28;20033;-49
2023/04/11 11:04:48;;;;;;;5.30;2.72;;;15.70;47.70;;;;;;5028944;28;20154;-48
2023/04/11 11:07:16;;;;;;;3.22;1.60;;;15.80;47.80;;;;;;5029372;28;20397;-46
2023/04/11 11:09:49;;;;;;;3.55;1.70;;;15.90;46.80;;;;;;5030020;28;20514;-50
2023/04/11 11:12:21;;;;;;;3.83;2.30;;;16.00;46.50;;;;;;5030293;28;20041;-48
2023/04/11 11:14:48;;;;;;;3.83;2.17;;;16.00;46.20;;;;;;5028588;28;20042;-49
2023/04/11 11:17:16;;;;;;;5.10;1.67;;;16.00;46.20;;;;;;5028218;28;20079;-46
2023/04/11 11:19:49;;;;;;;5.32;2.28;;;16.00;46.40;;;;;;5026763;28;20065;-50
2023/04/11 11:22:17;;;;;;;2.78;2.05;;;16.10;46.00;;;;;;5027676;28;20041;-48
2023/04/11 11:24:44;;;;;;;4.35;1.90;;;16.10;45.60;;;;;;5027779;28;20576;-47
2023/04/11 11:27:18;;;;;;;6.75;2.30;;;16.10;45.50;;;;;;5029345;28;20045;-51
2023/04/11 11:29:47;;;;;;;2.08;1.55;;;16.00;44.80;;;;;;5028999;28;20053;-51
2023/04/11 11:32:31;;;;;;;3.40;2.35;;;16.00;44.60;;;;;;5030087;28;20042;-50
2023/04/11 11:35:05;;;;;;;5.72;1.90;;;16.00;44.10;;;;;;5030129;28;20053;-49
2023/04/11 11:37:35;;;;;;;4.15;1.75;;;16.00;45.00;;;;;;5027608;28;20116;-50
2023/04/11 11:40:11;;;;;;;5.43;1.90;;;16.10;45.10;;;;;;5029679;28;20052;-49
2023/04/11 11:42:43;;;;;;;6.40;2.47;;;16.10;44.90;;;;;;5029693;28;20042;-50
2023/04/11 11:45:14;;;;;;;5.03;1.73;;;16.20;44.20;;;;;;5028502;28;20540;-50
2023/04/11 11:47:46;;;;;;;3.92;2.05;;;16.20;44.60;;;;;;5038378;23;20050;-47
2023/04/11 11:50:28;;;;;;;5.80;1.70;;;16.30;44.20;;;;;;5008353;28;20045;-46
2023/04/11 11:53:14;;;;;;;5.47;2.38;;;16.40;43.80;;;;;;5008674;28;20100;-47
2023/04/11 11:55:45;;;;;;;3.72;1.42;;;16.40;44.70;;;;;;5011021;28;20061;-48
2023/04/11 11:58:14;;;;;;;4.10;1.80;;;16.40;43.60;;;;;;5011365;28;20053;-45
2023/04/11 12:00:41;;;;;;;2.58;1.55;;;16.50;44.10;;;;;;5012405;28;20057;-47
2023/04/11 12:03:10;;;;;;;3.53;1.45;;;16.60;44.20;;;;;;5014641;28;20049;-46
2023/04/11 12:05:39;;;;;;;5.50;1.85;;;16.60;44.70;;;;;;5012306;28;20125;-48
2023/04/11 12:08:18;;;;;;;2.92;2.67;;;16.60;43.70;;;;;;5011702;28;20048;-46
2023/04/11 12:10:50;;;;;;;2.97;1.40;;;16.70;42.80;;;;;;5012084;28;20078;-48
2023/04/11 12:13:26;;;;;;;3.08;1.60;;;16.70;43.70;;;;;;5013039;28;20056;-46
2023/04/11 12:16:00;;;;;;;4.45;1.75;;;16.80;42.90;;;;;;5011850;28;20451;-49
2023/04/11 12:18:27;;;;;;;2.90;1.55;;;16.90;42.20;;;;;;5011278;28;20095;-48
2023/04/11 12:20:54;;;;;;;2.65;1.27;;;16.80;43.00;;;;;;5012479;28;20122;-48
2023/04/11 12:23:21;;;;;;;5.05;1.50;;;16.90;41.80;;;;;;5011663;28;20053;-48
2023/04/11 12:25:48;;;;;;;3.88;2.47;;;16.90;42.30;;;;;;5012006;28;20046;-49
2023/04/11 12:28:15;;;;;;;4.00;1.60;;;16.90;42.20;;;;;;5011525;28;20042;-49
2023/04/11 12:30:44;;;;;;;4.03;1.30;;;17.00;43.10;;;;;;5016591;28;20050;-48
2023/04/11 12:33:13;;;;;;;2.33;1.30;;;17.10;42.30;;;;;;5013125;28;20118;-50
2023/04/11 12:35:40;;;;;;;1.60;1.00;;;17.10;42.00;;;;;;5012528;28;20498;-48
2023/04/11 12:38:09;;;;;;;2.80;1.30;;;17.20;41.80;;;;;;5013001;28;20100;-49
2023/04/11 12:40:42;;;;;;;2.30;1.30;;;17.20;41.40;;;;;;5013333;28;20466;-49
2023/04/11 12:43:09;;;;;;;2.95;1.50;;;17.30;41.00;;;;;;5015125;28;20052;-51
2023/04/11 12:45:36;;;;;;;3.22;1.10;;;17.30;41.20;;;;;;5011673;28;20503;-50
2023/04/11 12:48:05;;;;;;;2.60;1.20;;;17.30;41.10;;;;;;5009951;28;20045;-49
2023/04/11 12:50:31;;;;;;;2.55;1.10;;;17.30;40.80;;;;;;5012699;28;20038;-49
2023/04/11 12:52:58;;;;;;;3.35;1.10;;;17.30;40.80;;;;;;5010122;28;20111;-51
2023/04/11 12:55:25;;;;;;;1.98;0.80;;;17.30;41.00;;;;;;5011244;28;20125;-51
2023/04/11 12:57:51;;;;;;;1.85;1.00;;;17.30;41.00;;;;;;5012454;28;20117;-46